Time;durP1;ratioP1;P1;durP2;ratioP2;P2;SDS_P1;SDS_P2;PMS_P1;PMS_P2;Temp;Humidity;BMP_temperature;BMP_pressure;BME280_temperature;BME280_humidity;BME280_pressure;Samples;Min_cycle;Max_cycle;Signal;HPM_P1;HPM_P2
2022/06/23 00:01:25;;;;;;;5.72;3.98;;;;;;;14.37;72.76;100474.39;1755309;80;26518;-82
2022/06/23 00:03:56;;;;;;;4.72;4.05;;;;;;;14.34;72.77;100477.50;1711213;80;26536;-81
2022/06/23 00:06:53;;;;;;;8.48;3.60;;;;;;;14.32;73.04;100476.89;1758950;80;25849;-81
2022/06/23 00:09:45;;;;;;;3.80;3.50;;;;;;;14.33;73.29;100479.88;1741239;80;27475;-81
2022/06/23 00:12:31;;;;;;;6.40;4.00;;;;;;;14.31;73.34;100477.41;1743183;80;25878;-82
2022/06/23 00:15:05;;;;;;;4.12;3.70;;;;;;;14.28;73.29;100472.95;1752242;80;26035;-81
2022/06/23 00:17:45;;;;;;;4.08;3.67;;;;;;;14.22;73.38;100478.65;1739426;80;26409;-82
2022/06/23 00:20:28;;;;;;;4.50;3.52;;;;;;;14.17;73.29;100477.64;1765643;80;25861;-81
2022/06/23 00:23:15;;;;;;;9.10;3.58;;;;;;;14.13;73.30;100481.30;1753063;80;27879;-81
2022/06/23 00:26:10;;;;;;;7.08;4.08;;;;;;;14.07;73.39;100475.38;1750186;80;25313;-81
2022/06/23 00:28:47;;;;;;;5.37;3.55;;;;;;;14.03;73.43;100478.74;1761443;80;25871;-81
2022/06/23 00:31:30;;;;;;;4.55;3.83;;;;;;;13.98;73.48;100490.14;1743254;80;27269;-82
2022/06/23 00:33:59;;;;;;;7.62;4.35;;;;;;;13.94;73.57;100489.72;1764232;80;25796;-82
2022/06/23 00:36:41;;;;;;;5.70;3.70;;;;;;;13.90;73.84;100491.19;1756765;80;28285;-82
2022/06/23 00:39:39;;;;;;;4.53;4.05;;;;;;;13.85;73.86;100494.21;1761585;80;25780;-81
2022/06/23 00:42:29;;;;;;;6.40;4.03;;;;;;;13.82;74.02;100498.14;1769432;79;25784;-82
2022/06/23 00:45:39;;;;;;;5.00;4.35;;;;;;;13.81;74.09;100495.13;1764910;80;26079;-82
2022/06/23 00:48:31;;;;;;;3.98;3.58;;;;;;;13.80;74.15;100498.88;1751431;80;25336;-82
2022/06/23 00:51:03;;;;;;;4.78;4.28;;;;;;;13.76;73.94;100496.30;1771137;80;27640;-81
2022/06/23 00:53:52;;;;;;;5.92;4.53;;;;;;;13.70;74.00;100500.34;1759974;80;25995;-81
2022/06/23 00:57:04;;;;;;;8.55;4.50;;;;;;;13.65;74.06;100492.06;1754838;80;25899;-81
2022/06/23 00:59:38;;;;;;;;;;;;;;;13.65;74.33;100492.89;1756879;80;26085;-81
2022/06/23 01:02:15;;;;;;;4.37;3.87;;;;;;;13.63;74.63;100492.27;1768996;80;25724;-81
2022/06/23 01:05:15;;;;;;;5.20;4.30;;;;;;;13.59;74.45;100490.20;1752177;80;27445;-81
2022/06/23 01:08:01;;;;;;;4.62;4.22;;;;;;;13.59;74.61;100492.90;1751080;79;25806;-81
2022/06/23 01:10:48;;;;;;;6.17;4.20;;;;;;;13.53;74.41;100490.54;1752796;80;25748;-81
2022/06/23 01:13:37;;;;;;;5.40;4.83;;;;;;;13.47;74.54;100490.00;1766162;80;26142;-82
2022/06/23 01:16:16;;;;;;;6.87;4.58;;;;;;;13.43;74.40;100490.65;1750257;80;25815;-82
2022/06/23 01:19:00;;;;;;;5.30;4.25;;;;;;;13.38;74.39;100489.09;1740148;80;28590;-83
2022/06/23 01:21:40;;;;;;;10.43;4.65;;;;;;;13.36;74.56;100487.95;1674461;80;26060;-83
2022/06/23 01:24:42;;;;;;;5.40;4.78;;;;;;;13.39;74.79;100498.80;1766680;80;25886;-82
2022/06/23 01:27:46;;;;;;;4.47;4.08;;;;;;;13.42;75.03;100497.88;1751530;80;26283;-82
2022/06/23 01:30:12;;;;;;;5.15;4.65;;;;;;;13.41;74.98;100507.52;1739393;80;25913;-81
2022/06/23 01:32:47;;;;;;;5.55;4.80;;;;;;;13.39;75.24;100503.67;1770704;80;28312;-81
2022/06/23 01:35:22;;;;;;;8.83;4.70;;;;;;;13.38;75.34;100493.95;1748052;80;25806;-81
2022/06/23 01:38:12;;;;;;;8.48;4.47;;;;;;;13.36;75.45;100504.61;1771406;79;26471;-80
2022/06/23 01:40:59;;;;;;;4.08;3.67;;;;;;;13.31;75.32;100499.02;1771042;80;26131;-81
2022/06/23 01:43:31;;;;;;;5.83;4.17;;;;;;;13.25;75.29;100506.56;1769957;80;25788;-82
2022/06/23 01:46:14;;;;;;;5.70;4.25;;;;;;;13.22;75.17;100503.77;1770541;80;27492;-81
2022/06/23 01:49:04;;;;;;;4.37;3.98;;;;;;;13.15;74.83;100509.14;1770253;79;25945;-81
2022/06/23 01:51:41;;;;;;;5.17;4.17;;;;;;;13.11;74.74;100517.82;1770197;79;26513;-81
2022/06/23 01:54:24;;;;;;;5.37;4.60;;;;;;;13.06;75.17;100513.08;1770443;80;26055;-82
2022/06/23 01:57:22;;;;;;;5.45;4.42;;;;;;;13.05;75.20;100514.09;1770587;79;26463;-82
2022/06/23 02:00:00;;;;;;;6.22;4.80;;;;;;;13.02;75.08;100515.00;1770316;80;28277;-81
2022/06/23 02:02:44;;;;;;;7.30;5.35;;;;;;;13.03;75.31;100518.83;1770376;80;26318;-81
2022/06/23 02:05:34;;;;;;;6.80;5.95;;;;;;;13.06;75.58;100518.97;1770569;80;26609;-82
2022/06/23 02:08:18;;;;;;;8.13;5.65;;;;;;;13.10;75.84;100518.87;1770353;79;26071;-81
2022/06/23 02:10:56;;;;;;;6.55;5.00;;;;;;;13.12;75.81;100512.77;1770232;80;25948;-81
2022/06/23 02:13:28;;;;;;;16.87;6.12;;;;;;;13.14;76.03;100514.73;1768261;80;27718;-81
2022/06/23 02:16:12;;;;;;;6.55;5.10;;;;;;;13.13;76.02;100514.41;1770386;79;25857;-82
2022/06/23 02:19:10;;;;;;;7.45;5.47;;;;;;;13.13;76.10;100512.55;1770308;79;25964;-82
2022/06/23 02:21:45;;;;;;;4.95;4.22;;;;;;;13.15;76.41;100513.17;1760403;80;26152;-81
2022/06/23 02:24:52;;;;;;;9.80;4.65;;;;;;;13.14;76.50;100510.19;1770087;80;25871;-81
2022/06/23 02:27:26;;;;;;;6.85;4.95;;;;;;;13.17;76.60;100511.64;1770395;79;28662;-82
2022/06/23 02:30:10;;;;;;;6.15;5.55;;;;;;;13.14;76.84;100514.22;1767005;80;25311;-81
2022/06/23 02:33:07;;;;;;;5.03;4.60;;;;;;;13.11;76.73;100515.13;1769334;80;25299;-81
2022/06/23 02:35:57;;;;;;;7.70;4.37;;;;;;;13.03;76.41;100517.48;1746152;82;26247;-81
2022/06/23 02:38:47;;;;;;;5.75;4.70;;;;;;;12.89;75.96;100526.56;1746053;80;25787;-83
2022/06/23 02:41:25;;;;;;;4.90;4.40;;;;;;;12.75;75.98;100522.17;1745765;82;27505;-81
2022/06/23 02:44:18;;;;;;;5.42;4.92;;;;;;;12.68;76.29;100524.53;1745683;82;26435;-81
2022/06/23 02:47:07;;;;;;;7.75;4.55;;;;;;;12.64;76.35;100532.69;1744292;80;25856;-81
2022/06/23 02:49:42;;;;;;;5.17;4.67;;;;;;;12.63;76.86;100534.55;1745689;82;26030;-81
2022/06/23 02:52:39;;;;;;;6.30;5.08;;;;;;;12.63;76.92;100528.33;1758429;80;25977;-82
2022/06/23 02:55:29;;;;;;;5.33;4.83;;;;;;;12.63;77.16;100531.86;1751782;80;27447;-82
2022/06/23 02:58:20;;;;;;;6.05;5.45;;;;;;;12.62;77.63;100528.84;1753246;80;25693;-81
2022/06/23 03:00:52;;;;;;;8.90;6.10;;;;;;;12.65;77.89;100534.33;1760187;79;25883;-81
2022/06/23 03:03:49;;;;;;;7.87;5.65;;;;;;;12.70;78.30;100531.87;1744406;80;26093;-81
2022/06/23 03:06:26;;;;;;;9.40;5.33;;;;;;;12.73;78.45;100534.98;1767626;80;25749;-81
2022/06/23 03:09:21;;;;;;;6.78;5.03;;;;;;;12.78;78.73;100542.45;1767584;79;27471;-81
2022/06/23 03:12:14;;;;;;;6.75;5.40;;;;;;;12.83;78.76;100550.20;1771730;80;25892;-81
2022/06/23 03:15:04;;;;;;;7.72;5.08;;;;;;;12.89;79.00;100554.80;1779332;79;25771;-81
2022/06/23 03:17:56;;;;;;;6.77;4.47;;;;;;;12.96;79.30;100554.78;1722222;82;26074;-82
2022/06/23 03:20:48;;;;;;;4.80;4.05;;;;;;;12.98;79.32;100549.52;1725609;81;25300;-82
2022/06/23 03:23:49;;;;;;;5.20;4.60;;;;;;;13.02;79.30;100552.65;1741889;80;27623;-81
2022/06/23 03:26:25;;;;;;;;;;;;;;;13.06;79.58;100551.23;1771607;80;25751;-81
2022/06/23 03:29:00;;;;;;;11.88;5.25;;;;;;;13.09;79.99;100555.69;1739308;80;25826;-81
2022/06/23 03:31:31;;;;;;;6.65;4.47;;;;;;;13.13;79.79;100565.00;1739971;80;25969;-82
2022/06/23 03:34:24;;;;;;;6.03;4.65;;;;;;;13.22;79.95;100563.45;1766356;79;25948;-81
2022/06/23 03:37:02;;;;;;;6.78;4.78;;;;;;;13.27;79.73;100565.86;1758401;79;27482;-81
2022/06/23 03:42:42;;;;;;;5.75;4.62;;;;;;;13.37;79.96;100568.96;1742027;81;25971;-81
2022/06/23 03:45:29;;;;;;;7.08;5.08;;;;;;;13.44;80.23;100571.66;1741822;82;26052;-81
2022/06/23 03:48:21;;;;;;;5.47;4.50;;;;;;;13.53;80.64;100569.09;1741337;80;25287;-81
2022/06/23 03:51:05;;;;;;;7.42;4.40;;;;;;;13.61;80.94;100571.56;1744849;80;27413;-81
2022/06/23 03:53:49;;;;;;;5.97;4.65;;;;;;;13.69;81.09;100578.92;1762575;79;25908;-81
2022/06/23 03:56:21;;;;;;;6.22;4.40;;;;;;;13.78;81.28;100580.38;1754626;80;25778;-82
2022/06/23 03:58:58;;;;;;;4.75;4.35;;;;;;;13.87;81.58;100575.09;1754079;79;26864;-81
2022/06/23 04:01:35;;;;;;;7.72;5.08;;;;;;;13.91;81.77;100576.84;1755696;81;25937;-82
2022/06/23 04:04:16;;;;;;;5.65;5.08;;;;;;;13.95;81.94;100582.11;1780490;79;28846;-82
2022/06/23 04:06:47;;;;;;;7.30;4.85;;;;;;;13.99;81.91;100579.31;1749054;79;25914;-82
2022/06/23 04:09:32;;;;;;;5.40;4.50;;;;;;;14.03;82.18;100579.73;1739218;82;25751;-81
2022/06/23 04:12:11;;;;;;;6.10;5.08;;;;;;;14.09;82.27;100585.63;1741721;81;27924;-81
2022/06/23 04:14:55;;;;;;;7.70;5.22;;;;;;;14.14;82.31;100584.46;1732071;81;25760;-82
2022/06/23 04:17:41;;;;;;;7.42;5.47;;;;;;;14.19;82.33;100592.75;1754997;80;27469;-81
2022/06/23 04:20:22;;;;;;;7.30;5.90;;;;;;;14.22;82.58;100591.00;1768163;80;25959;-82
2022/06/23 04:23:18;;;;;;;6.83;6.12;;;;;;;14.27;82.85;100599.25;1740819;80;25999;-81
2022/06/23 04:25:58;;;;;;;9.95;6.95;;;;;;;14.33;83.13;100602.48;1762886;80;26068;-82
2022/06/23 04:28:45;;;;;;;10.30;7.35;;;;;;;14.41;83.35;100606.32;1771638;79;25755;-81
2022/06/23 04:31:25;;;;;;;10.15;7.83;;;;;;;14.48;83.42;100608.45;1728168;80;28245;-81
2022/06/23 04:33:53;;;;;;;10.32;7.92;;;;;;;14.58;83.76;100611.02;1763619;80;25976;-81
2022/06/23 04:36:27;;;;;;;9.80;8.48;;;;;;;14.69;84.09;100614.95;1745270;80;25567;-82
2022/06/23 04:39:19;;;;;;;10.32;7.35;;;;;;;14.80;84.39;100616.16;1758634;79;26082;-81
2022/06/23 04:42:02;;;;;;;13.40;8.05;;;;;;;14.90;84.67;100619.21;1749790;80;25285;-82
2022/06/23 04:44:31;;;;;;;10.15;7.05;;;;;;;15.01;84.92;100623.39;1770731;80;28268;-81
2022/06/23 04:47:02;;;;;;;9.98;7.87;;;;;;;15.12;84.97;100630.02;1743827;80;26496;-81
2022/06/23 04:49:56;;;;;;;10.00;7.10;;;;;;;15.23;85.15;100627.44;1715791;82;25875;-81
2022/06/23 04:52:43;;;;;;;10.90;6.53;;;;;;;15.37;85.13;100638.48;1757010;80;26750;-81
2022/06/23 04:55:31;;;;;;;7.50;6.70;;;;;;;15.52;85.20;100642.26;1757283;80;26311;-81
2022/06/23 04:58:12;;;;;;;9.88;6.90;;;;;;;15.64;84.94;100647.25;1740707;80;27454;-81
2022/06/23 05:00:42;;;;;;;;;;;;;;;15.76;84.81;100644.14;1757152;80;25532;-82
2022/06/23 05:03:20;;;;;;;8.75;6.50;;;;;;;15.89;84.91;100648.61;1738128;81;26393;-81
2022/06/23 05:06:03;;;;;;;8.88;6.55;;;;;;;15.99;84.85;100653.02;1761174;80;26052;-82
2022/06/23 05:08:33;;;;;;;10.10;6.67;;;;;;;16.13;84.55;100655.90;1738269;81;25547;-82
2022/06/23 05:11:31;;;;;;;10.13;6.45;;;;;;;16.25;84.69;100654.66;1761357;80;27454;-81
2022/06/23 05:14:05;;;;;;;8.00;6.05;;;;;;;16.38;84.97;100661.30;1745595;80;25742;-82
2022/06/23 05:16:40;;;;;;;8.90;6.08;;;;;;;16.50;84.27;100660.37;1759393;79;25314;-81
2022/06/23 05:19:10;;;;;;;6.95;5.70;;;;;;;16.63;84.38;100661.59;1758271;80;26435;-81
2022/06/23 05:21:41;;;;;;;9.73;6.05;;;;;;;16.74;84.33;100661.37;1772717;80;25809;-81
2022/06/23 05:24:21;;;;;;;7.47;6.17;;;;;;;16.84;84.00;100671.96;1742459;80;28285;-81
2022/06/23 05:26:54;;;;;;;7.35;5.50;;;;;;;16.92;84.01;100671.65;1740588;80;26093;-82
2022/06/23 05:29:37;;;;;;;12.37;6.05;;;;;;;17.02;83.95;100677.90;1758074;80;25293;-81
2022/06/23 05:32:15;;;;;;;6.70;5.70;;;;;;;17.09;83.53;100666.44;1759141;80;26103;-82
2022/06/23 05:35:02;;;;;;;9.75;5.05;;;;;;;17.20;83.37;100664.84;1744492;80;25957;-82
2022/06/23 05:37:35;;;;;;;7.47;5.22;;;;;;;17.28;83.47;100671.33;1752047;78;27452;-81
2022/06/23 05:40:25;;;;;;;6.67;5.08;;;;;;;17.36;83.04;100673.71;1752002;79;25741;-81
2022/06/23 05:42:55;;;;;;;9.75;5.80;;;;;;;17.45;82.79;100679.11;1769215;80;26070;-81
2022/06/23 05:45:26;;;;;;;10.28;5.62;;;;;;;17.57;82.62;100675.42;1781052;79;26858;-82
2022/06/23 05:47:54;;;;;;;10.20;4.47;;;;;;;17.69;82.49;100674.91;1740842;80;26586;-82
2022/06/23 05:50:32;;;;;;;5.30;4.65;;;;;;;17.80;81.64;100680.06;1719963;82;27368;-82
2022/06/23 05:53:06;;;;;;;7.65;4.15;;;;;;;17.92;81.28;100679.55;1712594;81;25831;-82
2022/06/23 05:55:42;;;;;;;4.95;4.25;;;;;;;18.02;80.45;100686.61;1748916;81;25513;-81
2022/06/23 05:58:19;;;;;;;7.78;4.53;;;;;;;18.13;80.16;100693.11;1737551;81;26116;-82
2022/06/23 06:01:12;;;;;;;7.53;4.35;;;;;;;18.23;80.33;100685.21;1755820;81;25790;-81
2022/06/23 06:04:02;;;;;;;7.35;4.65;;;;;;;18.34;79.54;100696.08;1772457;80;27483;-82
2022/06/23 06:06:29;;;;;;;5.17;4.10;;;;;;;18.50;79.84;100700.55;1768670;80;26247;-82
2022/06/23 06:11:50;;;;;;;8.80;4.35;;;;;;;18.72;78.51;100705.13;1744303;81;26952;-82
2022/06/23 06:14:21;;;;;;;8.68;4.37;;;;;;;18.87;78.15;100705.46;1753089;81;26020;-82
2022/06/23 06:16:48;;;;;;;7.72;4.70;;;;;;;18.95;77.21;100704.26;1755669;79;27474;-82
2022/06/23 06:19:17;;;;;;;9.08;4.33;;;;;;;19.03;77.24;100714.22;1750393;79;25933;-81
2022/06/23 06:21:47;;;;;;;;;;;;;;;19.14;77.44;100711.18;1767814;79;25742;-81
2022/06/23 06:24:25;;;;;;;7.17;5.00;;;;;;;19.27;77.85;100714.98;1724123;81;26072;-81
2022/06/23 06:26:54;;;;;;;6.15;4.25;;;;;;;19.38;77.60;100720.95;1732472;80;25757;-81
2022/06/23 06:29:29;;;;;;;4.58;4.08;;;;;;;19.49;76.85;100717.38;1758392;80;28245;-81
2022/06/23 06:32:04;;;;;;;5.25;3.80;;;;;;;19.59;76.71;100714.05;1757159;80;25932;-81
2022/06/23 06:34:44;;;;;;;5.58;4.30;;;;;;;19.72;77.34;100714.56;1749181;80;25848;-81
2022/06/23 06:37:13;;;;;;;;;;;;;;;19.86;77.04;100720.53;1757815;79;26949;-81
2022/06/23 06:39:47;;;;;;;4.30;3.52;;;;;;;20.00;76.69;100721.33;1730379;81;25737;-82
2022/06/23 06:42:22;;;;;;;7.83;3.65;;;;;;;20.10;76.19;100727.50;1754530;80;28491;-81
2022/06/23 06:44:52;;;;;;;7.33;4.10;;;;;;;20.22;75.13;100734.23;1763208;80;25975;-81
2022/06/23 06:47:28;;;;;;;6.20;3.55;;;;;;;20.30;74.52;100736.54;1771126;79;25753;-81
2022/06/23 06:50:05;;;;;;;8.68;3.37;;;;;;;20.41;74.65;100737.83;1746392;80;26066;-81
2022/06/23 06:52:33;;;;;;;7.97;3.77;;;;;;;20.54;73.96;100734.78;1723050;80;26704;-81
2022/06/23 06:55:07;;;;;;;5.35;3.62;;;;;;;20.62;73.74;100737.08;1745774;80;27619;-81
2022/06/23 06:57:42;;;;;;;5.47;3.65;;;;;;;20.71;73.67;100732.03;1759564;79;25800;-82
2022/06/23 07:00:17;;;;;;;5.05;3.60;;;;;;;20.80;73.53;100733.27;1753565;80;25764;-82
2022/06/23 07:02:51;;;;;;;8.20;3.65;;;;;;;20.87;72.06;100729.80;1746694;80;26059;-82
2022/06/23 07:05:26;;;;;;;8.05;3.60;;;;;;;20.91;71.17;100732.86;1752030;79;25751;-82
2022/06/23 07:08:12;;;;;;;4.47;3.45;;;;;;;20.97;72.11;100734.58;1764107;79;28250;-81
2022/06/23 07:10:49;;;;;;;3.83;3.00;;;;;;;21.06;72.12;100727.66;1762544;80;25951;-82
2022/06/23 07:13:45;;;;;;;5.90;3.33;;;;;;;21.14;70.35;100728.58;1745937;80;25997;-81
2022/06/23 07:16:25;;;;;;;6.20;2.62;;;;;;;21.23;70.85;100735.24;1745249;80;26151;-82
2022/06/23 07:19:12;;;;;;;5.92;3.20;;;;;;;21.31;70.63;100737.52;1760617;79;34202;-81
2022/06/23 07:21:47;;;;;;;4.87;2.65;;;;;;;21.38;69.41;100743.61;1729359;80;27477;-81
2022/06/23 07:24:28;;;;;;;3.20;2.37;;;;;;;21.46;68.12;100748.61;1767888;80;25791;-81
2022/06/23 07:27:15;;;;;;;5.40;2.60;;;;;;;21.53;67.40;100748.41;1740422;80;26506;-81
2022/06/23 07:29:59;;;;;;;3.90;2.95;;;;;;;21.56;66.24;100749.25;1750044;80;26062;-81
2022/06/23 07:32:39;;;;;;;4.22;2.40;;;;;;;21.62;66.72;100744.97;1759385;80;26431;-81
2022/06/23 07:35:20;;;;;;;2.65;2.27;;;;;;;21.68;66.08;100746.69;1771443;80;27418;-81
2022/06/23 07:38:10;;;;;;;3.55;3.00;;;;;;;21.74;66.63;100746.20;1771575;79;25261;-82
2022/06/23 07:40:51;;;;;;;4.47;3.25;;;;;;;21.85;66.42;100748.82;1741438;80;25726;-81
2022/06/23 07:43:29;;;;;;;6.92;3.02;;;;;;;21.92;66.02;100754.07;1752358;80;26876;-81
2022/06/23 07:45:59;;;;;;;5.37;2.50;;;;;;;22.00;65.42;100754.97;1752505;80;25341;-81
2022/06/23 07:48:29;;;;;;;5.08;2.80;;;;;;;22.09;65.67;100756.95;1770829;79;28215;-81
2022/06/23 07:50:57;;;;;;;4.35;2.65;;;;;;;22.17;64.60;100754.31;1746547;80;25589;-81
2022/06/23 07:53:28;;;;;;;6.67;2.98;;;;;;;22.22;64.40;100752.44;1757922;80;25814;-81
2022/06/23 07:55:55;;;;;;;4.50;2.83;;;;;;;22.32;66.16;100755.81;1759423;80;26967;-81
2022/06/23 07:58:25;;;;;;;6.53;2.45;;;;;;;22.41;64.20;100756.95;1735658;81;25803;-81
2022/06/23 08:00:57;;;;;;;3.98;2.58;;;;;;;22.38;64.16;100764.32;1764760;79;28210;-81
2022/06/23 08:03:44;;;;;;;5.78;2.75;;;;;;;22.32;63.32;100760.44;1767899;79;25825;-81
2022/06/23 08:06:14;;;;;;;5.10;2.25;;;;;;;22.28;63.77;100760.95;1690486;83;26104;-81
2022/06/23 08:08:43;;;;;;;3.83;2.30;;;;;;;22.25;62.18;100760.66;1709899;81;26251;-82
2022/06/23 08:14:10;;;;;;;4.03;2.10;;;;;;;22.23;61.68;100760.09;1750468;80;27629;-81
2022/06/23 08:16:49;;;;;;;3.90;2.37;;;;;;;22.32;60.89;100762.64;1747861;79;25335;-81
2022/06/23 08:19:33;;;;;;;4.65;2.33;;;;;;;22.41;61.20;100759.69;1752674;80;25868;-81
2022/06/23 08:22:05;;;;;;;2.60;2.05;;;;;;;22.50;60.54;100750.47;1771330;79;26078;-82
2022/06/23 08:24:32;;;;;;;3.37;2.17;;;;;;;22.50;59.93;100748.58;1775068;79;25711;-82
2022/06/23 08:27:07;;;;;;;3.72;2.45;;;;;;;22.62;60.11;100747.07;1744834;80;28462;-81
2022/06/23 08:29:53;;;;;;;4.42;2.00;;;;;;;22.62;60.19;100745.17;1741945;80;25747;-81
2022/06/23 08:32:20;;;;;;;3.45;2.50;;;;;;;22.69;59.06;100749.84;1735810;80;25679;-82
2022/06/23 08:35:04;;;;;;;2.27;1.98;;;;;;;22.78;59.49;100754.27;1770159;80;26070;-81
2022/06/23 08:37:48;;;;;;;5.08;2.27;;;;;;;22.74;57.51;100756.72;1775759;79;25874;-82
2022/06/23 08:40:29;;;;;;;4.85;2.17;;;;;;;22.72;58.00;100752.59;1773526;79;28131;-81
2022/06/23 08:43:13;;;;;;;6.10;2.00;;;;;;;22.83;57.71;100753.78;1751488;81;26736;-81
2022/06/23 08:45:51;;;;;;;3.42;2.33;;;;;;;22.79;57.04;100762.22;1752662;81;25844;-81
2022/06/23 08:48:40;;;;;;;5.95;1.85;;;;;;;22.69;56.34;100759.97;1752348;80;26077;-82
2022/06/23 08:51:18;;;;;;;4.62;2.35;;;;;;;22.65;56.51;100765.11;1761214;80;25961;-81
2022/06/23 08:54:23;;;;;;;7.17;2.20;;;;;;;22.75;57.44;100763.80;1725140;81;27458;-81
2022/06/23 08:57:05;;;;;;;3.42;2.45;;;;;;;22.73;56.80;100761.88;1738699;80;25830;-81
2022/06/23 08:59:40;;;;;;;8.40;3.50;;;;;;;22.67;56.94;100767.03;1705267;82;25969;-80
2022/06/23 09:02:23;;;;;;;5.12;2.75;;;;;;;22.66;56.56;100765.94;1730235;82;26950;-81
2022/06/23 09:05:21;;;;;;;6.20;2.27;;;;;;;22.80;58.43;100767.95;1744543;82;25307;-81
2022/06/23 09:08:12;;;;;;;3.80;2.10;;;;;;;22.99;57.49;100766.97;1728493;82;27428;-82
2022/06/23 09:11:02;;;;;;;5.72;2.12;;;;;;;23.10;56.78;100759.11;1690870;80;25761;-81
2022/06/23 09:14:03;;;;;;;4.60;2.10;;;;;;;23.22;56.42;100757.55;1735546;80;25312;-82
2022/06/23 09:16:51;;;;;;;;;;;;;;;23.39;56.22;100756.84;1730231;82;26664;-82
2022/06/23 09:19:38;;;;;;;2.58;1.82;;;;;;;23.59;55.89;100761.83;1717279;82;25800;-81
2022/06/23 09:22:39;;;;;;;4.33;2.15;;;;;;;23.66;56.34;100755.57;1744706;82;27457;-81
2022/06/23 09:25:37;;;;;;;3.52;1.50;;;;;;;23.72;55.02;100756.39;1731248;82;25770;-81
2022/06/23 09:28:18;;;;;;;6.00;1.60;;;;;;;23.55;54.85;100762.09;1730357;80;25777;-81
2022/06/23 09:31:10;;;;;;;2.70;1.92;;;;;;;23.53;52.85;100762.91;1713642;82;26917;-81
2022/06/23 09:34:04;;;;;;;3.42;1.50;;;;;;;23.60;52.54;100758.55;1729027;82;26083;-81
2022/06/23 09:36:52;;;;;;;1.82;1.55;;;;;;;23.71;51.94;100752.03;1731292;80;28318;-81
2022/06/23 09:39:44;;;;;;;2.67;2.00;;;;;;;23.87;53.42;100756.44;1718986;81;25299;-81
2022/06/23 09:42:44;;;;;;;6.55;1.47;;;;;;;23.94;51.39;100759.74;1723908;82;25340;-81
2022/06/23 09:45:38;;;;;;;4.12;1.60;;;;;;;23.95;50.45;100752.36;1729390;82;26133;-81
2022/06/23 09:48:32;;;;;;;3.17;1.70;;;;;;;23.97;50.16;100751.01;1745039;80;25943;-80
2022/06/23 09:51:17;;;;;;;2.15;1.95;;;;;;;23.99;50.27;100757.56;1731496;82;27464;-81
2022/06/23 09:54:04;;;;;;;5.55;2.55;;;;;;;23.94;50.85;100755.64;1736167;82;25760;-82
2022/06/23 09:57:15;;;;;;;2.67;1.70;;;;;;;23.89;49.41;100758.35;1733323;82;25798;-82
2022/06/23 10:00:04;;;;;;;3.58;1.47;;;;;;;23.88;51.93;100766.30;1735894;82;26982;-81
2022/06/23 10:02:54;;;;;;;4.03;1.60;;;;;;;23.87;49.80;100761.91;1734510;82;26030;-80
2022/06/23 10:05:32;;;;;;;3.25;1.70;;;;;;;23.87;49.80;100761.91;1675279;85;27486;-81
2022/06/23 10:08:50;;;;;;;2.15;1.50;;;;;;;23.94;50.10;100765.22;1729412;82;25736;-81
2022/06/23 10:11:45;;;;;;;4.15;1.50;;;;;;;24.02;50.12;100765.22;1744448;82;25842;-81
2022/06/23 10:14:36;;;;;;;1.80;1.25;;;;;;;23.97;48.74;100761.95;1738416;82;26069;-81
2022/06/23 10:17:26;;;;;;;3.47;1.80;;;;;;;24.03;48.44;100770.44;1732555;82;25392;-81
2022/06/23 10:20:15;;;;;;;2.15;1.37;;;;;;;24.13;48.63;100759.53;1730084;81;27647;-80
2022/06/23 10:23:11;;;;;;;5.85;2.02;;;;;;;24.22;49.64;100760.64;1745229;82;25727;-80
2022/06/23 10:26:07;;;;;;;2.15;1.52;;;;;;;24.30;47.73;100766.94;1727155;82;25977;-81
2022/06/23 10:28:53;;;;;;;3.75;1.67;;;;;;;24.35;48.08;100765.58;1720045;82;26143;-82
2022/06/23 10:31:40;;;;;;;2.42;1.40;;;;;;;24.45;48.29;100763.38;1720423;81;25560;-81
2022/06/23 10:34:36;;;;;;;1.82;1.65;;;;;;;24.52;48.10;100766.67;1718290;82;27481;-81
2022/06/23 10:37:37;;;;;;;3.00;1.40;;;;;;;24.60;47.12;100768.85;1714139;82;26272;-82
2022/06/23 10:40:40;;;;;;;2.35;1.60;;;;;;;24.68;47.99;100766.92;1729540;81;25755;-83
2022/06/23 10:43:24;;;;;;;2.25;1.32;;;;;;;24.77;47.03;100765.30;1751521;80;26341;-80
2022/06/23 10:45:59;;;;;;;4.62;1.57;;;;;;;24.81;45.55;100768.30;1741665;80;25371;-81
2022/06/23 10:48:57;;;;;;;8.53;1.60;;;;;;;24.85;46.96;100766.68;1731707;82;27526;-81
2022/06/23 10:51:44;;;;;;;5.53;1.60;;;;;;;24.92;47.01;100765.83;1732564;82;25807;-81
2022/06/23 10:54:41;;;;;;;3.77;1.67;;;;;;;25.04;46.93;100769.11;1729720;82;25881;-82
2022/06/23 10:57:34;;;;;;;3.15;1.60;;;;;;;25.12;46.30;100766.62;1727049;80;26162;-81
2022/06/23 11:00:20;;;;;;;3.60;1.60;;;;;;;25.13;45.39;100775.64;1740517;82;25838;-81
2022/06/23 11:03:38;;;;;;;6.50;1.87;;;;;;;25.09;45.36;100773.19;1722639;82;27460;-82
2022/06/23 11:06:37;;;;;;;4.15;1.40;;;;;;;25.20;48.05;100776.17;1726563;82;26018;-80
2022/06/23 11:09:34;;;;;;;5.28;2.00;;;;;;;25.19;45.66;100778.09;1727686;82;25977;-80
2022/06/23 11:12:31;;;;;;;2.70;1.60;;;;;;;24.93;45.59;100777.91;1720989;82;26916;-81
2022/06/23 11:15:28;;;;;;;4.15;2.02;;;;;;;24.65;45.69;100779.81;1738612;82;25757;-81
2022/06/23 11:18:12;;;;;;;2.52;1.65;;;;;;;24.65;47.04;100779.81;1740701;80;28196;-81
2022/06/23 11:21:02;;;;;;;1.95;1.45;;;;;;;24.71;45.51;100776.52;1735933;82;25982;-81
2022/06/23 11:24:04;;;;;;;3.92;1.60;;;;;;;24.72;45.01;100772.12;1720520;82;26397;-82
2022/06/23 11:26:54;;;;;;;6.75;1.80;;;;;;;24.77;46.20;100773.52;1714622;82;26162;-82
2022/06/23 11:29:53;;;;;;;6.25;2.15;;;;;;;24.94;45.79;100771.84;1730975;82;25843;-79
2022/06/23 11:32:33;;;;;;;2.92;1.80;;;;;;;25.07;45.53;100770.73;1727436;82;27614;-80
2022/06/23 11:35:20;;;;;;;2.67;1.70;;;;;;;25.16;44.92;100767.70;1741235;82;26437;-81
2022/06/23 11:38:18;;;;;;;3.90;2.02;;;;;;;25.23;45.56;100764.09;1658321;85;25936;-82
2022/06/23 11:41:02;;;;;;;5.35;2.00;;;;;;;25.35;45.03;100762.96;1712161;82;26717;-81
2022/06/23 11:50:11;;;;;;;2.10;1.90;;;;;;;25.58;44.60;100758.22;1710645;80;26758;-79
2022/06/23 11:52:52;;;;;;;5.90;2.00;;;;;;;25.48;43.87;100765.14;1708611;82;25865;-81
2022/06/23 11:55:33;;;;;;;2.92;1.60;;;;;;;25.27;44.31;100767.11;1708334;83;26058;-81
2022/06/23 11:58:43;;;;;;;2.10;1.75;;;;;;;25.17;45.17;100765.21;1716463;81;25874;-80
2022/06/23 12:01:20;;;;;;;7.97;2.10;;;;;;;25.14;45.15;100771.27;1726030;81;28111;-80
2022/06/23 12:04:06;;;;;;;2.33;1.57;;;;;;;24.90;45.27;100770.22;1713755;82;25794;-81
2022/06/23 12:07:07;;;;;;;3.42;1.67;;;;;;;24.70;45.70;100777.05;1734396;82;25720;-79
2022/06/23 12:09:55;;;;;;;;;;;;;;;24.57;46.06;100772.16;1724224;82;26084;-81
2022/06/23 12:12:22;;;;;;;2.27;1.70;;;;;;;24.46;46.60;100772.67;1731963;82;26436;-79
2022/06/23 12:14:51;;;;;;;4.97;1.80;;;;;;;24.57;46.83;100770.79;1745338;82;27441;-79
2022/06/23 12:17:25;;;;;;;3.20;1.70;;;;;;;24.72;47.05;100762.53;1733534;82;25320;-81
2022/06/23 12:20:18;;;;;;;3.25;1.87;;;;;;;24.88;46.68;100759.26;1720837;82;25742;-80
2022/06/23 12:23:08;;;;;;;3.05;1.80;;;;;;;25.01;46.42;100761.42;1727855;82;26923;-80
2022/06/23 12:25:50;;;;;;;2.62;1.25;;;;;;;25.16;46.44;100755.91;1726750;82;25768;-80
2022/06/23 12:28:54;;;;;;;1.98;1.60;;;;;;;25.28;45.64;100759.14;1707334;80;28026;-80
2022/06/23 12:31:57;;;;;;;2.60;1.65;;;;;;;25.39;44.34;100758.55;1731391;82;25310;-80
2022/06/23 12:34:44;;;;;;;2.10;1.72;;;;;;;25.48;45.21;100748.14;1732316;82;26491;-80
2022/06/23 12:37:42;;;;;;;4.28;2.00;;;;;;;25.64;44.03;100749.69;1743009;82;26085;-80
2022/06/23 12:40:17;;;;;;;2.45;1.57;;;;;;;25.66;44.44;100749.42;1744137;80;25876;-80
2022/06/23 12:43:03;;;;;;;2.37;1.65;;;;;;;25.76;44.46;100744.70;1742984;81;28298;-78
2022/06/23 12:45:41;;;;;;;2.25;1.80;;;;;;;25.87;43.11;100752.32;1740296;80;26051;-80
2022/06/23 12:48:29;;;;;;;2.33;2.00;;;;;;;25.92;44.21;100744.86;1746093;80;25769;-79
2022/06/23 12:51:36;;;;;;;2.65;1.77;;;;;;;26.03;43.79;100746.98;1752874;80;26078;-81
2022/06/23 12:54:20;;;;;;;2.67;1.60;;;;;;;26.20;44.72;100746.62;1705434;80;25893;-79
2022/06/23 12:56:55;;;;;;;3.27;1.62;;;;;;;26.35;43.61;100743.75;1770190;80;27448;-78
2022/06/23 12:59:30;;;;;;;5.35;1.65;;;;;;;26.36;42.67;100751.73;1752321;79;25856;-80